createdAt,value
2022-08-08T00:00:56.638Z,2.50
2022-08-08T00:03:31.684Z,2.53
2022-08-08T00:07:13.140Z,2.55
2022-08-08T00:10:16.963Z,2.38
2022-08-08T00:14:15.234Z,2.40
2022-08-08T00:17:23.186Z,2.28
2022-08-08T00:20:50.469Z,2.38
2022-08-08T00:27:01.830Z,2.20
2022-08-08T00:30:11.271Z,2.22
2022-08-08T00:33:24.065Z,2.30
2022-08-08T00:36:34.988Z,2.30
2022-08-08T00:41:13.012Z,2.15
2022-08-08T00:43:40.218Z,2.25
2022-08-08T00:47:24.736Z,2.38
2022-08-08T00:50:48.217Z,2.38
2022-08-08T00:54:13.333Z,2.10
2022-08-08T00:57:40.801Z,2.63
2022-08-08T01:01:29.361Z,2.45
2022-08-08T01:05:29.291Z,2.30
2022-08-08T01:09:34.816Z,2.67
2022-08-08T01:13:43.298Z,2.65
2022-08-08T01:17:44.860Z,2.30
2022-08-08T01:22:03.817Z,2.47
2022-08-08T01:25:26.254Z,2.28
2022-08-08T01:28:59.303Z,2.22
2022-08-08T01:36:01.156Z,2.13
2022-08-08T01:39:24.241Z,2.30
2022-08-08T01:42:49.951Z,2.28
2022-08-08T01:46:18.907Z,2.40
2022-08-08T01:49:45.907Z,2.38
2022-08-08T01:55:17.675Z,2.58
2022-08-08T01:57:24.275Z,2.88
2022-08-08T02:00:36.260Z,2.00
2022-08-08T02:03:55.624Z,2.17
2022-08-08T02:07:16.630Z,2.40
2022-08-08T02:10:44.988Z,2.22
2022-08-08T02:14:34.431Z,2.20
2022-08-08T02:18:10.269Z,2.45
2022-08-08T02:21:42.932Z,2.28
2022-08-08T02:25:11.985Z,2.88
2022-08-08T02:28:26.163Z,2.30
2022-08-08T02:32:01.060Z,2.25
2022-08-08T02:36:05.207Z,2.67
2022-08-08T02:39:42.300Z,2.50
2022-08-08T02:44:34.986Z,2.08
2022-08-08T02:46:54.256Z,2.60
2022-08-08T02:50:20.900Z,2.13
2022-08-08T02:53:50.703Z,2.42
2022-08-08T02:57:17.250Z,2.28
2022-08-08T03:00:35.678Z,2.10
2022-08-08T03:05:04.548Z,2.30
2022-08-08T03:07:58.231Z,1.98
2022-08-08T03:11:47.628Z,2.30
2022-08-08T03:15:56.685Z,2.38
2022-08-08T03:18:33.223Z,2.20
2022-08-08T03:21:40.715Z,2.50
2022-08-08T03:24:57.808Z,2.33
2022-08-08T03:28:04.931Z,2.00
2022-08-08T03:31:30.389Z,2.28
2022-08-08T03:34:41.223Z,2.42
2022-08-08T03:38:53.755Z,2.35
2022-08-08T03:42:03.943Z,2.75
2022-08-08T03:44:32.902Z,2.50
2022-08-08T03:47:45.425Z,2.15
2022-08-08T03:50:50.273Z,2.58
2022-08-08T03:53:56.154Z,2.70
2022-08-08T03:56:59.856Z,2.50
2022-08-08T04:00:26.109Z,2.50
2022-08-08T04:03:59.860Z,2.65
2022-08-08T04:07:01.863Z,2.35
2022-08-08T04:10:11.104Z,2.78
2022-08-08T04:13:17.896Z,2.38
2022-08-08T04:16:38.325Z,2.50
2022-08-08T04:19:44.161Z,2.10
2022-08-08T04:22:51.615Z,2.50
2022-08-08T04:25:54.784Z,2.70
2022-08-08T04:28:57.445Z,2.50
2022-08-08T04:32:00.925Z,2.15
2022-08-08T04:35:06.347Z,2.28
2022-08-08T04:38:21.663Z,2.40
2022-08-08T04:41:25.105Z,2.38
2022-08-08T04:44:39.522Z,2.38
2022-08-08T04:47:46.248Z,2.33
2022-08-08T04:50:51.796Z,2.17
2022-08-08T04:54:38.186Z,1.35
2022-08-08T04:57:20.818Z,1.98
2022-08-08T05:00:25.223Z,2.00
2022-08-08T05:04:09.782Z,2.20
2022-08-08T05:06:52.145Z,2.47
2022-08-08T05:13:02.614Z,2.05
2022-08-08T05:16:55.602Z,2.00
2022-08-08T05:20:12.632Z,1.92
2022-08-08T05:23:02.103Z,2.30
2022-08-08T05:26:07.004Z,2.65
2022-08-08T05:29:08.838Z,2.33
2022-08-08T05:32:13.079Z,2.40
2022-08-08T05:35:19.001Z,2.00
2022-08-08T05:38:32.003Z,2.33
2022-08-08T05:41:54.986Z,2.10
2022-08-08T05:45:10.358Z,1.90
2022-08-08T05:48:28.948Z,2.22
2022-08-08T05:51:48.235Z,1.90
2022-08-08T05:54:57.227Z,1.50
2022-08-08T05:58:17.292Z,1.98
2022-08-08T06:01:52.721Z,1.55
2022-08-08T06:04:54.404Z,1.20
2022-08-08T06:08:02.030Z,1.90
2022-08-08T06:11:06.711Z,1.67
2022-08-08T06:14:12.825Z,1.80
2022-08-08T06:17:19.461Z,1.40
2022-08-08T06:20:34.761Z,1.45
2022-08-08T06:23:48.963Z,1.45
2022-08-08T06:27:04.740Z,0.95
2022-08-08T06:30:19.752Z,1.25
2022-08-08T06:33:36.954Z,1.40
2022-08-08T06:37:01.989Z,1.48
2022-08-08T06:40:25.864Z,1.30
2022-08-08T06:43:34.705Z,1.05
2022-08-08T06:46:40.293Z,1.45
2022-08-08T06:49:55.520Z,1.40
2022-08-08T06:53:09.495Z,1.30
2022-08-08T06:56:23.254Z,1.00
2022-08-08T06:59:27.106Z,1.55
2022-08-08T07:02:45.190Z,1.38
2022-08-08T07:06:02.268Z,1.67
2022-08-08T07:09:20.775Z,1.38
2022-08-08T07:12:41.323Z,1.20
2022-08-08T07:16:29.033Z,1.48
2022-08-08T07:19:41.916Z,1.52
2022-08-08T07:23:04.639Z,1.73
2022-08-08T07:26:10.627Z,1.60
2022-08-08T07:29:58.737Z,1.42
2022-08-08T07:32:38.436Z,1.60
2022-08-08T07:35:41.912Z,1.40
2022-08-08T07:38:52.859Z,1.33
2022-08-08T07:42:04.369Z,1.35
2022-08-08T07:45:09.108Z,1.00
2022-08-08T07:48:15.175Z,1.25
2022-08-08T07:51:23.378Z,0.95
2022-08-08T07:54:49.123Z,1.17
2022-08-08T07:58:13.616Z,1.40
2022-08-08T08:01:27.068Z,1.33
2022-08-08T08:04:52.311Z,1.73
2022-08-08T08:08:04.437Z,0.88
2022-08-08T08:11:19.845Z,1.70
2022-08-08T08:14:54.393Z,2.20
2022-08-08T08:18:03.337Z,1.90
2022-08-08T08:21:13.278Z,1.45
2022-08-08T08:24:21.128Z,1.77
2022-08-08T08:27:34.577Z,1.70
2022-08-08T08:30:38.495Z,1.73
2022-08-08T08:33:40.795Z,1.58
2022-08-08T08:36:51.389Z,1.70
2022-08-08T08:40:01.106Z,1.90
2022-08-08T08:43:16.882Z,1.63
2022-08-08T08:46:25.698Z,1.73
2022-08-08T08:49:33.946Z,1.58
2022-08-08T08:52:58.571Z,1.40
2022-08-08T08:56:03.210Z,1.50
2022-08-08T08:59:15.103Z,1.60
2022-08-08T09:02:24.203Z,1.90
2022-08-08T09:05:54.377Z,1.45
2022-08-08T09:09:25.958Z,2.35
2022-08-08T09:12:50.594Z,1.70
2022-08-08T09:16:03.561Z,1.40
2022-08-08T09:19:09.678Z,1.25
2022-08-08T09:22:13.562Z,1.40
2022-08-08T09:25:36.013Z,1.73
2022-08-08T09:29:05.248Z,0.70
2022-08-08T09:32:17.097Z,1.23
2022-08-08T09:35:32.178Z,1.70
2022-08-08T09:38:59.003Z,1.20
2022-08-08T09:42:19.984Z,1.50
2022-08-08T09:46:02.954Z,1.20
2022-08-08T09:49:41.852Z,0.55
2022-08-08T09:52:54.161Z,1.08
2022-08-08T09:56:04.527Z,1.17
2022-08-08T09:59:39.757Z,0.90
2022-08-08T10:05:43.110Z,1.17
2022-08-08T10:08:50.831Z,0.98
2022-08-08T10:12:28.148Z,1.33
2022-08-08T10:15:18.107Z,1.40
2022-08-08T10:18:25.445Z,0.80
2022-08-08T10:21:33.382Z,1.35
2022-08-08T10:27:52.226Z,0.80
2022-08-08T10:31:21.467Z,0.88
2022-08-08T10:34:57.065Z,1.10
2022-08-08T10:38:05.494Z,0.95
2022-08-08T10:41:16.269Z,0.30
2022-08-08T10:44:24.492Z,0.80
2022-08-08T10:47:30.614Z,1.13
2022-08-08T10:53:57.146Z,1.30
2022-08-08T10:57:03.648Z,1.10
2022-08-08T11:00:07.371Z,0.90
2022-08-08T11:03:15.916Z,1.10
2022-08-08T11:06:18.041Z,1.00
2022-08-08T11:09:21.849Z,0.47
2022-08-08T11:12:24.796Z,0.95
2022-08-08T11:15:31.467Z,1.00
2022-08-08T11:18:36.924Z,1.02
2022-08-08T11:21:54.217Z,1.15
2022-08-08T11:25:03.637Z,0.98
2022-08-08T11:28:25.557Z,0.90
2022-08-08T11:31:46.788Z,0.63
2022-08-08T11:35:23.192Z,0.90
2022-08-08T11:38:39.340Z,0.73
2022-08-08T11:41:45.060Z,1.00
2022-08-08T11:44:49.114Z,0.90
2022-08-08T11:48:02.914Z,0.45
2022-08-08T11:51:37.902Z,0.67
2022-08-08T11:54:38.350Z,0.50
2022-08-08T11:57:46.771Z,0.82
2022-08-08T12:00:56.329Z,0.47
2022-08-08T12:03:59.774Z,1.15
2022-08-08T12:07:04.727Z,1.10
2022-08-08T12:10:15.009Z,0.75
2022-08-08T12:13:38.504Z,1.02
2022-08-08T12:16:49.428Z,0.80
2022-08-08T12:19:57.367Z,0.90
2022-08-08T12:22:59.629Z,0.90
2022-08-08T12:26:17.191Z,0.70
2022-08-08T12:29:40.787Z,0.93
2022-08-08T12:32:48.089Z,0.77
2022-08-08T12:35:53.035Z,0.73
2022-08-08T12:38:55.393Z,0.80
2022-08-08T12:42:01.855Z,0.80
2022-08-08T12:45:53.731Z,0.52
2022-08-08T12:48:36.871Z,0.80
2022-08-08T12:51:53.957Z,0.85
2022-08-08T12:55:35.644Z,1.00
2022-08-08T12:58:48.546Z,0.50
2022-08-08T13:01:51.941Z,0.60
2022-08-08T13:04:56.080Z,0.28
2022-08-08T13:08:04.436Z,0.70
2022-08-08T13:11:22.396Z,0.90
2022-08-08T13:14:53.014Z,0.90
2022-08-08T13:18:10.489Z,0.90
2022-08-08T13:21:14.915Z,0.73
2022-08-08T13:24:39.484Z,0.85
2022-08-08T13:27:40.261Z,1.10
2022-08-08T13:30:43.804Z,0.90
2022-08-08T13:33:50.231Z,1.20
2022-08-08T13:36:53.845Z,1.00
2022-08-08T13:39:58.355Z,1.07
2022-08-08T13:43:00.434Z,0.88
2022-08-08T13:46:26.726Z,0.75
2022-08-08T13:50:37.105Z,1.05
2022-08-08T13:52:55.092Z,1.30
2022-08-08T13:56:02.449Z,0.88
2022-08-08T13:59:05.274Z,0.93
2022-08-08T14:02:21.235Z,0.80
2022-08-08T14:05:28.366Z,1.05
2022-08-08T14:08:34.693Z,1.00
2022-08-08T14:11:36.880Z,1.33
2022-08-08T14:14:43.219Z,1.10
2022-08-08T14:17:59.001Z,0.90
2022-08-08T14:21:20.888Z,1.00
2022-08-08T14:24:34.222Z,1.10
2022-08-08T14:27:40.381Z,1.02
2022-08-08T14:30:47.579Z,1.23
2022-08-08T14:33:57.169Z,1.10
2022-08-08T14:37:08.280Z,1.00
2022-08-08T14:40:18.033Z,1.10
2022-08-08T14:43:31.287Z,0.90
2022-08-08T14:46:42.348Z,1.10
2022-08-08T14:50:06.891Z,1.20
2022-08-08T14:53:13.445Z,1.10
2022-08-08T14:56:16.125Z,1.15
2022-08-08T14:59:31.749Z,1.27
2022-08-08T15:03:01.560Z,1.10
2022-08-08T15:06:03.093Z,1.17
2022-08-08T15:09:07.236Z,0.95
2022-08-08T15:12:09.292Z,1.40
2022-08-08T15:15:18.823Z,1.00
2022-08-08T15:18:36.856Z,1.17
2022-08-08T15:24:44.897Z,1.20
2022-08-08T15:28:03.578Z,1.05
2022-08-08T15:31:55.955Z,1.08
2022-08-08T15:34:36.598Z,1.02
2022-08-08T15:37:40.885Z,1.00
2022-08-08T15:40:44.320Z,1.20
2022-08-08T15:44:00.642Z,1.00
2022-08-08T15:47:03.446Z,0.80
2022-08-08T15:50:16.795Z,1.17
2022-08-08T15:53:23.763Z,0.98
2022-08-08T15:56:27.903Z,1.20
2022-08-08T16:00:05.177Z,1.20
2022-08-08T16:02:53.321Z,1.13
2022-08-08T16:06:01.837Z,0.75
2022-08-08T16:13:03.133Z,1.20
2022-08-08T16:13:27.254Z,1.00
2022-08-08T16:15:57.163Z,1.10
2022-08-08T16:19:11.096Z,0.70
2022-08-08T16:22:30.340Z,1.20
2022-08-08T16:25:46.641Z,1.30
2022-08-08T16:28:56.632Z,0.90
2022-08-08T16:31:58.490Z,1.00
2022-08-08T16:35:03.322Z,1.00
2022-08-08T16:38:08.680Z,1.23
2022-08-08T16:41:20.043Z,0.93
2022-08-08T16:44:28.168Z,1.08
2022-08-08T16:47:41.690Z,0.85
2022-08-08T16:50:44.656Z,1.38
2022-08-08T16:55:22.771Z,1.20
2022-08-08T16:57:27.914Z,1.08
2022-08-08T17:00:30.151Z,1.20
2022-08-08T17:03:59.804Z,1.40
2022-08-08T17:06:54.051Z,1.95
2022-08-08T17:09:55.994Z,1.20
2022-08-08T17:12:59.863Z,1.20
2022-08-08T17:16:02.238Z,1.48
2022-08-08T17:19:04.523Z,1.10
2022-08-08T17:22:06.423Z,1.23
2022-08-08T17:25:11.829Z,1.20
2022-08-08T17:28:13.824Z,1.10
2022-08-08T17:31:45.126Z,1.05
2022-08-08T17:35:04.438Z,1.00
2022-08-08T17:38:01.520Z,1.10
2022-08-08T17:41:05.792Z,1.20
2022-08-08T17:44:11.163Z,1.25
2022-08-08T17:47:23.262Z,1.00
2022-08-08T17:50:26.562Z,0.88
2022-08-08T17:53:31.231Z,1.20
2022-08-08T17:56:46.503Z,1.17
2022-08-08T17:59:48.365Z,1.15
2022-08-08T18:03:08.610Z,1.20
2022-08-08T18:06:22.142Z,1.10
2022-08-08T18:09:38.046Z,0.80
2022-08-08T18:12:42.819Z,1.20
2022-08-08T18:15:46.481Z,0.90
2022-08-08T18:19:02.513Z,0.95
2022-08-08T18:22:05.956Z,0.70
2022-08-08T18:25:36.984Z,1.00
2022-08-08T18:28:54.691Z,1.20
2022-08-08T18:31:59.332Z,1.00
2022-08-08T18:35:01.088Z,1.10
2022-08-08T18:38:03.918Z,1.20
2022-08-08T18:41:19.494Z,0.95
2022-08-08T18:44:41.942Z,1.20
2022-08-08T18:47:43.743Z,1.10
2022-08-08T18:50:50.122Z,1.23
2022-08-08T18:54:02.744Z,1.20
2022-08-08T18:57:12.772Z,1.13
2022-08-08T19:00:20.870Z,1.10
2022-08-08T19:03:22.958Z,1.20
2022-08-08T19:06:26.423Z,1.13
2022-08-08T19:09:48.750Z,1.10
2022-08-08T19:12:53.548Z,1.23
2022-08-08T19:15:56.160Z,1.20
2022-08-08T19:19:02.472Z,1.30
2022-08-08T19:22:05.155Z,0.90
2022-08-08T19:26:01.848Z,1.50
2022-08-08T19:28:30.265Z,1.58
2022-08-08T19:31:35.506Z,1.30
2022-08-08T19:34:41.463Z,1.38
2022-08-08T19:37:48.545Z,1.42
2022-08-08T19:40:57.756Z,1.23
2022-08-08T19:44:12.635Z,1.27
2022-08-08T19:47:25.525Z,1.10
2022-08-08T19:50:35.776Z,1.55
2022-08-08T19:53:51.755Z,1.25
2022-08-08T19:59:56.154Z,1.30
2022-08-08T20:02:58.247Z,1.38
2022-08-08T20:06:14.054Z,1.20
2022-08-08T20:09:22.705Z,1.25
2022-08-08T20:12:32.787Z,1.48
2022-08-08T20:15:59.956Z,1.50
2022-08-08T20:18:58.715Z,1.30
2022-08-08T20:22:03.147Z,1.60
2022-08-08T20:25:08.482Z,1.60
2022-08-08T20:28:19.943Z,1.48
2022-08-08T20:31:47.095Z,1.23
2022-08-08T20:34:48.362Z,1.38
2022-08-08T20:37:55.599Z,1.23
2022-08-08T20:40:57.630Z,1.33
2022-08-08T20:44:01.037Z,1.65
2022-08-08T20:47:02.894Z,1.42
2022-08-08T20:50:10.043Z,1.60
2022-08-08T20:53:16.730Z,1.40
2022-08-08T20:56:34.972Z,1.75
2022-08-08T20:59:41.308Z,1.60
2022-08-08T21:02:44.075Z,1.63
2022-08-08T21:05:59.079Z,1.27
2022-08-08T21:09:01.012Z,1.30
2022-08-08T21:12:03.628Z,1.40
2022-08-08T21:15:09.638Z,1.35
2022-08-08T21:18:11.987Z,1.23
2022-08-08T21:21:20.621Z,1.23
2022-08-08T21:24:52.175Z,1.40
2022-08-08T21:28:14.415Z,1.20
2022-08-08T21:31:22.520Z,1.48
2022-08-08T21:34:25.105Z,1.20
2022-08-08T21:37:54.108Z,1.33
2022-08-08T21:40:56.147Z,1.33
2022-08-08T21:43:58.802Z,1.20
2022-08-08T21:48:20.134Z,0.90
2022-08-08T21:50:23.625Z,1.15
2022-08-08T21:54:32.272Z,1.15
2022-08-08T21:56:48.926Z,1.13
2022-08-08T22:00:02.518Z,1.48
2022-08-08T22:03:17.924Z,1.30
2022-08-08T22:06:31.189Z,1.50
2022-08-08T22:09:40.993Z,1.52
2022-08-08T22:12:45.557Z,1.38
2022-08-08T22:15:58.780Z,1.50
2022-08-08T22:19:08.933Z,1.20
2022-08-08T22:22:19.125Z,1.27
2022-08-08T22:25:25.058Z,1.15
2022-08-08T22:29:13.856Z,1.02
2022-08-08T22:31:58.526Z,1.30
2022-08-08T22:35:04.078Z,1.23
2022-08-08T22:38:05.990Z,1.10
2022-08-08T22:41:15.978Z,1.20
2022-08-08T22:44:23.073Z,1.13
2022-08-08T22:47:37.600Z,1.27
2022-08-08T22:50:39.821Z,1.10
2022-08-08T22:54:30.924Z,1.35
2022-08-08T22:57:08.642Z,1.15
2022-08-08T23:00:13.914Z,1.50
2022-08-08T23:03:18.308Z,1.30
2022-08-08T23:06:24.275Z,1.30
2022-08-08T23:09:30.593Z,1.30
2022-08-08T23:12:40.334Z,1.05
2022-08-08T23:16:40.567Z,1.08
2022-08-08T23:19:04.460Z,1.33
2022-08-08T23:22:10.962Z,1.77
2022-08-08T23:25:12.780Z,1.10
2022-08-08T23:28:20.202Z,1.50
2022-08-08T23:31:22.630Z,1.15
2022-08-08T23:34:24.709Z,1.45
2022-08-08T23:38:00.748Z,1.48
2022-08-08T23:40:49.184Z,1.40
2022-08-08T23:43:56.504Z,1.25
2022-08-08T23:49:00.078Z,1.48
2022-08-08T23:50:30.546Z,1.20
2022-08-08T23:54:05.562Z,1.42
2022-08-08T23:56:57.595Z,1.20
